Time;durP1;ratioP1;P1;durP2;ratioP2;P2;SDS_P1;SDS_P2;PMS_P1;PMS_P2;Temp;Humidity;BMP_temperature;BMP_pressure;BME280_temperature;BME280_humidity;BME280_pressure;Samples;Min_cycle;Max_cycle;Signal;HPM_P1;HPM_P2
2023/05/01 00:02:12;;;;;;;3.53;1.83;;;;;;;10.97;99.31;101588.91;4974862;28;20398;-64
2023/05/01 00:04:37;;;;;;;2.65;2.00;;;;;;;10.96;99.76;101591.41;4978227;28;20363;-64
2023/05/01 00:07:02;;;;;;;2.35;2.03;;;;;;;10.96;100.00;101583.63;4975227;28;20081;-64
2023/05/01 00:09:27;;;;;;;2.17;1.95;;;;;;;10.93;100.00;101579.22;4984635;28;20026;-63
2023/05/01 00:11:53;;;;;;;4.57;2.20;;;;;;;10.92;100.00;101582.59;4987183;28;20022;-64
2023/05/01 00:14:18;;;;;;;3.45;2.53;;;;;;;10.87;100.00;101571.16;4987454;28;20052;-64
2023/05/01 00:16:45;;;;;;;3.60;2.38;;;;;;;10.89;100.00;101572.13;4981074;28;20053;-64
2023/05/01 00:19:11;;;;;;;3.28;2.10;;;;;;;10.86;100.00;101574.59;4988488;28;20018;-64
2023/05/01 00:21:36;;;;;;;5.55;2.63;;;;;;;10.84;100.00;101568.44;4991459;28;20054;-64
2023/05/01 00:24:02;;;;;;;3.50;2.20;;;;;;;10.83;100.00;101564.09;4990368;28;20032;-64
2023/05/01 00:26:30;;;;;;;2.90;2.15;;;;;;;10.82;100.00;101563.19;4990789;28;20085;-64
2023/05/01 00:28:55;;;;;;;4.88;2.15;;;;;;;10.81;99.81;101553.66;4978087;28;20426;-64
2023/05/01 00:31:23;;;;;;;2.88;2.05;;;;;;;10.78;100.00;101554.41;4990741;28;20030;-64
2023/05/01 00:33:48;;;;;;;3.63;2.47;;;;;;;10.77;100.00;101551.75;4989087;28;20034;-64
2023/05/01 00:36:14;;;;;;;4.32;2.15;;;;;;;10.75;100.00;101543.91;4990743;28;20042;-64
2023/05/01 00:38:39;;;;;;;2.50;2.30;;;;;;;10.74;100.00;101541.25;4989214;28;20022;-64
2023/05/01 00:41:04;;;;;;;5.30;2.40;;;;;;;10.73;100.00;101542.06;4990139;28;20030;-64
2023/05/01 00:43:29;;;;;;;3.75;2.60;;;;;;;10.74;100.00;101547.31;4988531;28;20019;-64
2023/05/01 00:45:55;;;;;;;4.30;3.03;;;;;;;10.73;100.00;101544.66;4990794;28;20018;-64
2023/05/01 00:48:20;;;;;;;5.68;2.53;;;;;;;10.72;100.00;101543.75;4989995;28;20386;-64
2023/05/01 00:50:47;;;;;;;3.75;2.50;;;;;;;10.69;100.00;101538.44;4989931;28;20109;-64
2023/05/01 00:53:13;;;;;;;4.20;2.55;;;;;;;10.68;100.00;101534.09;4981701;28;20027;-64
2023/05/01 00:55:41;;;;;;;3.53;2.60;;;;;;;10.65;100.00;101527.06;4986053;28;20077;-63
2023/05/01 00:58:06;;;;;;;3.97;3.05;;;;;;;10.63;100.00;101527.84;4981685;28;20027;-64
2023/05/01 01:00:32;;;;;;;3.85;2.70;;;;;;;10.65;100.00;101523.59;4983659;28;20034;-64
2023/05/01 01:02:57;;;;;;;3.58;2.97;;;;;;;10.65;100.00;101526.19;4980382;28;20036;-64
2023/05/01 01:05:26;;;;;;;3.17;2.38;;;;;;;10.65;100.00;101518.41;4975439;28;20034;-64
2023/05/01 01:07:57;;;;;;;4.78;2.58;;;;;;;10.64;100.00;101511.44;4974791;28;20379;-64
2023/05/01 01:10:32;;;;;;;4.40;2.60;;;;;;;10.62;100.00;101515.69;4990670;28;20030;-63
2023/05/01 01:13:07;;;;;;;4.97;2.33;;;;;;;10.61;100.00;101513.91;4990273;28;20435;-64
2023/05/01 01:15:44;;;;;;;3.45;2.67;;;;;;;10.57;100.00;101508.63;4988277;28;20050;-64
2023/05/01 01:18:33;;;;;;;5.15;2.65;;;;;;;10.54;100.00;101505.00;4979477;28;20495;-64
2023/05/01 01:21:12;;;;;;;3.80;2.65;;;;;;;10.51;100.00;101505.75;4989811;28;20034;-64
2023/05/01 01:23:40;;;;;;;4.47;2.90;;;;;;;10.51;100.00;101499.66;4989673;28;20038;-64
2023/05/01 01:26:12;;;;;;;4.70;2.58;;;;;;;10.50;100.00;101491.03;4989530;28;20063;-63
2023/05/01 01:29:28;;;;;;;4.28;2.70;;;;;;;10.48;100.00;101492.66;4988823;28;20499;-64
2023/05/01 01:32:09;;;;;;;4.10;2.88;;;;;;;10.49;100.00;101484.06;4891706;29;20041;-64
2023/05/01 01:34:49;;;;;;;2.30;2.10;;;;;;;10.48;100.00;101479.72;4979945;28;20042;-64
2023/05/01 01:37:29;;;;;;;4.38;2.90;;;;;;;10.47;100.00;101477.88;4972930;28;20022;-64
2023/05/01 01:40:13;;;;;;;4.32;2.78;;;;;;;10.46;100.00;101473.53;4968083;28;20113;-64
2023/05/01 01:42:48;;;;;;;4.50;2.63;;;;;;;10.46;100.00;101468.34;4989720;28;20040;-64
2023/05/01 01:45:22;;;;;;;5.15;2.65;;;;;;;10.44;100.00;101460.53;4989662;28;20030;-64
2023/05/01 01:47:49;;;;;;;4.35;2.70;;;;;;;10.44;100.00;101459.63;4988888;28;20026;-64
2023/05/01 01:50:17;;;;;;;3.63;2.30;;;;;;;10.42;100.00;101451.78;4989857;28;20029;-64
2023/05/01 01:52:46;;;;;;;2.83;2.30;;;;;;;10.43;100.00;101452.69;4984514;28;20108;-64
2023/05/01 01:55:13;;;;;;;3.92;2.78;;;;;;;10.44;100.00;101451.84;4981389;28;20085;-64
2023/05/01 01:57:42;;;;;;;6.00;2.60;;;;;;;10.42;100.00;101453.47;4988794;28;20029;-64
2023/05/01 02:00:09;;;;;;;4.85;2.30;;;;;;;10.42;100.00;101454.38;4987582;28;20042;-64
2023/05/01 02:02:37;;;;;;;5.38;2.92;;;;;;;10.43;100.00;101448.38;4987279;28;20022;-64
2023/05/01 02:05:06;;;;;;;4.55;2.83;;;;;;;10.42;100.00;101445.72;4988546;28;20431;-64
2023/05/01 02:07:32;;;;;;;4.40;2.95;;;;;;;10.43;100.00;101439.72;4973673;28;20034;-64
2023/05/01 02:10:00;;;;;;;4.22;2.60;;;;;;;10.41;100.00;101444.84;4969976;28;20630;-64
2023/05/01 02:12:25;;;;;;;3.80;2.65;;;;;;;10.40;100.00;101443.06;4971116;28;20031;-64
2023/05/01 02:14:52;;;;;;;5.82;2.78;;;;;;;10.40;100.00;101439.56;4977642;28;20069;-64
2023/05/01 02:17:20;;;;;;;5.60;2.55;;;;;;;10.37;100.00;101432.56;4975424;28;20521;-64
2023/05/01 02:19:45;;;;;;;3.35;2.17;;;;;;;10.37;100.00;101436.84;4970431;28;20023;-64
2023/05/01 02:22:12;;;;;;;3.80;3.08;;;;;;;10.36;100.00;101433.38;4970539;28;20594;-64
2023/05/01 02:24:41;;;;;;;6.40;3.42;;;;;;;10.33;100.00;101436.75;4970345;28;20350;-63
2023/05/01 02:27:11;;;;;;;5.30;3.17;;;;;;;10.32;100.00;101428.91;4970523;28;20022;-64
2023/05/01 02:29:36;;;;;;;5.20;3.00;;;;;;;10.30;100.00;101426.25;4979466;28;20138;-64
2023/05/01 02:32:02;;;;;;;4.25;3.10;;;;;;;10.28;100.00;101421.81;4973001;28;20105;-64
2023/05/01 02:34:27;;;;;;;6.47;3.35;;;;;;;10.27;100.00;101420.06;4969865;28;20023;-64
2023/05/01 02:36:53;;;;;;;5.95;3.55;;;;;;;10.25;100.00;101417.41;4964231;28;20037;-64
2023/05/01 02:39:18;;;;;;;8.18;4.22;;;;;;;10.25;100.00;101411.34;4969477;28;20412;-64
2023/05/01 02:41:45;;;;;;;6.63;3.75;;;;;;;10.23;100.00;101407.78;4982755;28;20015;-64
2023/05/01 02:44:11;;;;;;;5.55;3.38;;;;;;;10.21;100.00;101402.53;4970099;28;20019;-64
2023/05/01 02:46:40;;;;;;;4.47;3.20;;;;;;;10.21;100.00;101405.13;4986239;28;20020;-64
2023/05/01 02:49:06;;;;;;;4.00;3.55;;;;;;;10.19;100.00;101404.19;4988909;28;20022;-64
2023/05/01 02:51:31;;;;;;;6.30;3.60;;;;;;;10.19;100.00;101394.72;4972011;28;20034;-64
2023/05/01 02:53:58;;;;;;;6.35;3.47;;;;;;;10.21;100.00;101394.78;4981929;28;20034;-64
2023/05/01 02:56:27;;;;;;;4.70;3.72;;;;;;;10.21;100.00;101390.50;4969158;28;20428;-64
2023/05/01 02:58:52;;;;;;;5.13;3.70;;;;;;;10.22;100.00;101388.75;4969434;28;20107;-64
2023/05/01 03:01:19;;;;;;;3.88;3.28;;;;;;;10.19;100.00;101386.94;4968928;28;20039;-64
2023/05/01 03:03:44;;;;;;;4.82;3.30;;;;;;;10.18;100.00;101385.16;4969036;28;20090;-64
2023/05/01 03:06:10;;;;;;;6.13;3.88;;;;;;;10.16;100.00;101381.63;4968982;28;20038;-63
2023/05/01 03:08:35;;;;;;;6.03;3.78;;;;;;;10.13;100.00;101381.50;4978638;28;20026;-64
2023/05/01 03:11:04;;;;;;;6.13;3.83;;;;;;;10.15;100.00;101378.97;4972580;28;20037;-64
2023/05/01 03:13:29;;;;;;;5.18;3.53;;;;;;;10.13;100.00;101376.31;4961519;28;20084;-64
2023/05/01 03:15:55;;;;;;;4.63;3.40;;;;;;;10.13;100.00;101378.03;4971114;28;20554;-64
2023/05/01 03:18:20;;;;;;;4.75;3.33;;;;;;;10.11;100.00;101377.09;4968813;28;20031;-63
2023/05/01 03:20:58;;;;;;;5.70;3.60;;;;;;;10.09;100.00;101369.25;4968477;28;20367;-63
2023/05/01 03:23:23;;;;;;;6.63;3.72;;;;;;;10.07;100.00;101356.22;4969362;28;20039;-64
2023/05/01 03:25:49;;;;;;;6.57;3.95;;;;;;;10.06;100.00;101362.22;4969106;28;20478;-64
2023/05/01 03:28:15;;;;;;;4.43;3.50;;;;;;;10.03;100.00;101359.50;4968720;28;20475;-64
2023/05/01 03:30:41;;;;;;;6.68;3.50;;;;;;;10.02;100.00;101362.03;4968808;28;20014;-64
2023/05/01 03:33:06;;;;;;;4.07;3.55;;;;;;;10.00;100.00;101351.59;4963348;28;20112;-63
2023/05/01 03:35:32;;;;;;;5.38;3.67;;;;;;;10.00;100.00;101354.19;4969445;28;20030;-64
2023/05/01 03:37:57;;;;;;;5.97;3.90;;;;;;;9.99;100.00;101355.00;4969525;28;20031;-64
2023/05/01 03:40:22;;;;;;;4.32;3.92;;;;;;;9.98;100.00;101350.66;4981048;28;20118;-64
2023/05/01 03:42:47;;;;;;;8.82;4.20;;;;;;;9.99;100.00;101346.34;4968795;28;20039;-64
2023/05/01 03:45:13;;;;;;;4.05;3.45;;;;;;;10.00;100.00;101350.72;4975140;28;20054;-64
2023/05/01 03:47:38;;;;;;;6.97;4.13;;;;;;;10.00;100.00;101342.97;4975361;28;20025;-64
2023/05/01 03:50:04;;;;;;;5.50;4.25;;;;;;;10.00;100.00;101349.00;4972839;28;20027;-64
2023/05/01 03:52:30;;;;;;;6.28;3.78;;;;;;;9.99;100.00;101347.25;4972823;28;20030;-64
2023/05/01 03:54:56;;;;;;;4.93;3.72;;;;;;;9.98;100.00;101340.31;4972260;28;20025;-64
2023/05/01 03:57:22;;;;;;;4.53;3.70;;;;;;;9.99;100.00;101344.66;4972369;28;20022;-64
2023/05/01 03:59:47;;;;;;;6.47;4.13;;;;;;;9.99;100.00;101338.59;4972922;28;20030;-64
2023/05/01 04:02:13;;;;;;;4.63;4.05;;;;;;;9.99;100.00;101336.00;4971804;28;20028;-64
2023/05/01 04:04:38;;;;;;;6.28;4.25;;;;;;;9.98;100.00;101335.13;4972503;28;20026;-64
2023/05/01 04:07:04;;;;;;;5.90;4.68;;;;;;;9.97;100.00;101338.53;4972272;28;20026;-64
2023/05/01 04:09:29;;;;;;;5.40;4.15;;;;;;;9.96;100.00;101334.19;4988859;28;20033;-64
2023/05/01 04:11:55;;;;;;;5.25;3.72;;;;;;;9.94;100.00;101339.28;4989618;28;20209;-64
2023/05/01 04:14:20;;;;;;;7.03;4.35;;;;;;;9.94;100.00;101328.03;4989402;28;20058;-63
2023/05/01 04:16:45;;;;;;;5.95;4.45;;;;;;;9.91;100.00;101328.78;4989409;28;20026;-64
2023/05/01 04:19:11;;;;;;;6.38;4.50;;;;;;;9.91;100.00;101327.91;4989199;28;20120;-64
2023/05/01 04:21:36;;;;;;;5.20;4.70;;;;;;;9.88;100.00;101323.47;4989973;28;20101;-64
2023/05/01 04:24:01;;;;;;;5.50;4.20;;;;;;;9.87;100.00;101326.00;4990518;28;20037;-64
2023/05/01 04:26:27;;;;;;;7.53;4.65;;;;;;;9.87;100.00;101320.84;4991463;28;20498;-64
2023/05/01 04:28:52;;;;;;;6.97;5.03;;;;;;;9.85;100.00;101332.03;4991004;28;20040;-64
2023/05/01 04:31:18;;;;;;;5.20;4.70;;;;;;;9.84;100.00;101327.66;4991571;28;20037;-64
2023/05/01 04:33:43;;;;;;;6.85;4.60;;;;;;;9.84;100.00;101325.06;4990680;28;20022;-64
2023/05/01 04:36:08;;;;;;;6.28;4.32;;;;;;;9.83;100.00;101325.88;4990906;28;20387;-64
2023/05/01 04:38:35;;;;;;;5.57;4.93;;;;;;;9.84;100.00;101334.50;4986128;28;20027;-64
2023/05/01 04:41:01;;;;;;;5.53;4.88;;;;;;;9.84;100.00;101338.00;4971635;28;20081;-64
2023/05/01 04:43:26;;;;;;;5.70;4.80;;;;;;;9.84;100.00;101343.19;4971620;28;20035;-64
2023/05/01 04:45:52;;;;;;;6.05;4.60;;;;;;;9.81;100.00;101332.69;4971729;28;20029;-64
2023/05/01 04:48:18;;;;;;;6.00;5.22;;;;;;;9.79;100.00;101334.34;4971743;28;20030;-63
2023/05/01 04:50:43;;;;;;;5.78;4.95;;;;;;;9.77;100.00;101340.28;4971725;28;20405;-64
2023/05/01 04:53:08;;;;;;;5.93;5.05;;;;;;;9.76;100.00;101339.38;4971235;28;20263;-64
2023/05/01 04:55:34;;;;;;;6.65;5.10;;;;;;;9.72;100.00;101337.47;4984318;28;20037;-64
2023/05/01 04:58:02;;;;;;;9.35;4.63;;;;;;;9.71;100.00;101333.13;4971178;28;20073;-64
2023/05/01 05:00:27;;;;;;;6.70;4.82;;;;;;;9.70;100.00;101341.69;4970959;28;20065;-64
2023/05/01 05:02:53;;;;;;;10.73;5.65;;;;;;;9.68;100.00;101335.56;4970929;28;20027;-64
2023/05/01 05:05:18;;;;;;;7.25;4.95;;;;;;;9.69;100.00;101337.34;4983963;28;20374;-64
2023/05/01 05:07:43;;;;;;;6.93;5.47;;;;;;;9.69;100.00;101329.56;4973686;28;20065;-64
2023/05/01 05:10:09;;;;;;;7.05;4.40;;;;;;;9.68;100.00;101333.84;4989580;28;20041;-63
2023/05/01 05:12:34;;;;;;;5.80;5.18;;;;;;;9.69;100.00;101337.34;4987574;28;20066;-63
2023/05/01 05:14:59;;;;;;;6.30;4.95;;;;;;;9.70;100.00;101334.81;4979996;28;20078;-63
2023/05/01 05:17:25;;;;;;;5.93;5.32;;;;;;;9.71;100.00;101333.13;4976875;28;20022;-63
2023/05/01 05:19:50;;;;;;;5.80;5.20;;;;;;;9.72;100.00;101333.19;4985055;28;20037;-63
2023/05/01 05:22:15;;;;;;;7.10;4.95;;;;;;;9.73;100.00;101334.09;4986074;28;20022;-63
2023/05/01 05:24:41;;;;;;;7.03;5.53;;;;;;;9.77;100.00;101335.97;4987158;28;20479;-62
2023/05/01 05:27:07;;;;;;;6.88;5.20;;;;;;;9.78;100.00;101332.56;4987101;28;20532;-63
2023/05/01 05:29:33;;;;;;;8.05;5.40;;;;;;;9.82;100.00;101325.81;4986503;28;20045;-62
2023/05/01 05:31:59;;;;;;;7.35;5.32;;;;;;;9.84;100.00;101326.75;4983666;28;20125;-63
2023/05/01 05:34:24;;;;;;;7.57;5.40;;;;;;;9.89;100.00;101325.28;4981237;28;20105;-63
2023/05/01 05:36:50;;;;;;;10.95;5.57;;;;;;;9.92;100.00;101329.69;4976901;28;20062;-63
2023/05/01 05:39:15;;;;;;;9.25;6.80;;;;;;;9.95;100.00;101329.81;4983274;28;20065;-63
2023/05/01 05:41:40;;;;;;;7.25;5.80;;;;;;;9.93;100.00;101326.28;4981354;28;20468;-63
2023/05/01 05:44:06;;;;;;;7.10;5.78;;;;;;;9.94;100.00;101322.88;4976676;28;20041;-63
2023/05/01 05:46:31;;;;;;;9.95;5.97;;;;;;;9.92;100.00;101325.41;4973926;28;20078;-63
2023/05/01 05:48:57;;;;;;;7.80;6.40;;;;;;;9.94;100.00;101322.88;4979657;28;20030;-63
2023/05/01 05:51:22;;;;;;;9.27;5.93;;;;;;;9.97;100.00;101323.88;4976616;28;20483;-63
2023/05/01 05:53:47;;;;;;;7.78;6.07;;;;;;;10.01;100.00;101324.91;4986555;28;20068;-63
2023/05/01 05:56:12;;;;;;;7.80;6.35;;;;;;;10.01;100.00;101319.72;4985871;28;20116;-63
2023/05/01 05:58:38;;;;;;;7.70;6.65;;;;;;;10.05;100.00;101324.22;4986248;28;20030;-63
2023/05/01 06:01:10;;;;;;;7.97;5.75;;;;;;;10.07;100.00;101312.19;4986154;28;20493;-63
2023/05/01 06:03:36;;;;;;;6.82;6.05;;;;;;;10.11;100.00;101315.78;4986137;28;20419;-63
2023/05/01 06:06:01;;;;;;;6.90;6.20;;;;;;;10.14;100.00;101321.13;4984214;28;20022;-63
2023/05/01 06:08:27;;;;;;;6.88;6.03;;;;;;;10.16;100.00;101313.41;4986366;28;20062;-63
2023/05/01 06:10:52;;;;;;;6.82;6.22;;;;;;;10.16;100.00;101311.72;4982902;28;20037;-63
2023/05/01 06:13:17;;;;;;;7.07;6.38;;;;;;;10.18;100.00;101319.53;4978629;28;20039;-63
2023/05/01 06:15:43;;;;;;;7.63;5.63;;;;;;;10.16;100.00;101321.19;4977458;28;20136;-63
2023/05/01 06:18:09;;;;;;;10.48;6.80;;;;;;;10.19;100.00;101318.72;4986622;28;20088;-63
2023/05/01 06:20:34;;;;;;;7.32;6.55;;;;;;;10.23;100.00;101320.63;4981752;28;20039;-63
2023/05/01 06:23:00;;;;;;;11.13;6.97;;;;;;;10.29;100.00;101326.03;4986077;28;20064;-62
2023/05/01 06:25:25;;;;;;;8.45;6.43;;;;;;;10.33;100.00;101325.34;4984033;28;20073;-63
2023/05/01 06:27:50;;;;;;;8.57;7.10;;;;;;;10.40;100.00;101320.41;4985545;28;20418;-63
2023/05/01 06:30:18;;;;;;;9.45;6.50;;;;;;;10.47;100.00;101318.97;4984303;28;20037;-62
2023/05/01 06:32:44;;;;;;;8.75;6.75;;;;;;;10.52;100.00;101315.75;4985891;28;20767;-63
2023/05/01 06:35:09;;;;;;;7.57;6.32;;;;;;;10.60;100.00;101309.97;4966523;28;20042;-63
2023/05/01 06:37:35;;;;;;;8.15;6.00;;;;;;;10.67;100.00;101315.47;4986130;28;20081;-63
2023/05/01 06:40:00;;;;;;;9.63;6.93;;;;;;;10.74;100.00;101314.00;4983280;28;20112;-63
2023/05/01 06:42:26;;;;;;;9.02;6.22;;;;;;;10.80;100.00;101318.53;4986063;28;20034;-63
2023/05/01 06:44:51;;;;;;;8.82;6.35;;;;;;;10.85;100.00;101316.16;4983841;28;20510;-63
2023/05/01 06:47:16;;;;;;;8.10;7.10;;;;;;;10.91;100.00;101319.84;4986010;28;20023;-63
2023/05/01 06:49:42;;;;;;;8.80;6.53;;;;;;;10.97;100.00;101316.63;4985827;28;20157;-63
2023/05/01 06:52:07;;;;;;;6.40;5.70;;;;;;;11.00;100.00;101314.13;4987598;28;20478;-63
2023/05/01 06:54:33;;;;;;;6.68;5.80;;;;;;;11.04;100.00;101313.41;4988316;28;20026;-62
2023/05/01 06:56:58;;;;;;;7.80;6.32;;;;;;;11.06;100.00;101310.88;4977620;28;20651;-63
2023/05/01 06:59:24;;;;;;;9.05;6.57;;;;;;;11.11;100.00;101308.47;4971585;28;20030;-63
2023/05/01 07:01:49;;;;;;;9.35;5.97;;;;;;;11.15;100.00;101305.16;4974693;28;20030;-63
2023/05/01 07:04:14;;;;;;;8.98;6.28;;;;;;;11.19;100.00;101320.00;4984376;28;20483;-63
2023/05/01 07:06:40;;;;;;;8.95;6.35;;;;;;;11.23;100.00;101313.22;4974333;28;20050;-63
2023/05/01 07:09:05;;;;;;;8.90;5.90;;;;;;;11.31;100.00;101310.91;4979081;28;20287;-63
2023/05/01 07:11:31;;;;;;;8.02;6.03;;;;;;;11.43;100.00;101311.34;4977761;28;20069;-63
2023/05/01 07:13:57;;;;;;;6.90;5.95;;;;;;;11.58;100.00;101311.03;4976015;28;20122;-63
2023/05/01 07:16:22;;;;;;;8.45;6.07;;;;;;;11.69;100.00;101308.81;4974758;28;20356;-63
2023/05/01 07:18:47;;;;;;;10.05;6.35;;;;;;;11.80;100.00;101310.88;4978268;28;20025;-63
2023/05/01 07:21:12;;;;;;;7.15;6.13;;;;;;;11.91;100.00;101303.47;4977060;28;20034;-63
2023/05/01 07:23:38;;;;;;;7.07;6.13;;;;;;;12.01;100.00;101302.94;4975240;28;20018;-63
2023/05/01 07:26:04;;;;;;;6.82;6.13;;;;;;;11.99;100.00;101295.09;4953985;28;20502;-63
2023/05/01 07:28:30;;;;;;;8.05;6.63;;;;;;;12.18;100.00;101307.84;4977204;28;20030;-63
2023/05/01 07:30:55;;;;;;;10.57;7.40;;;;;;;12.36;100.00;101297.16;4980258;28;20536;-63
2023/05/01 07:33:22;;;;;;;7.75;6.95;;;;;;;12.54;100.00;101302.06;4979105;28;20049;-63
2023/05/01 07:35:47;;;;;;;9.82;6.70;;;;;;;12.76;100.00;101309.63;4978092;28;20026;-64
2023/05/01 07:38:14;;;;;;;11.00;6.50;;;;;;;12.93;100.00;101304.94;4974883;28;20104;-63
2023/05/01 07:40:40;;;;;;;8.48;6.15;;;;;;;13.13;100.00;101304.66;4984622;28;20034;-63
2023/05/01 07:43:06;;;;;;;9.15;7.05;;;;;;;13.29;98.09;101303.38;4983757;28;20089;-63
2023/05/01 07:45:31;;;;;;;7.85;5.97;;;;;;;13.35;94.01;101308.72;4985134;28;20458;-64
2023/05/01 07:47:56;;;;;;;9.45;6.35;;;;;;;13.41;93.63;101311.53;4983175;28;20019;-63
2023/05/01 07:50:22;;;;;;;7.90;5.82;;;;;;;13.57;95.23;101309.38;4958588;28;20041;-63
2023/05/01 07:52:47;;;;;;;7.25;6.55;;;;;;;13.57;90.06;101309.38;4981116;28;20026;-63
2023/05/01 07:55:13;;;;;;;9.23;6.15;;;;;;;13.69;92.45;101312.28;4967106;28;20030;-64
2023/05/01 07:57:38;;;;;;;9.30;6.18;;;;;;;13.86;93.69;101309.25;4962113;28;20038;-63
2023/05/01 08:00:04;;;;;;;9.75;5.75;;;;;;;14.01;91.43;101307.91;4964548;28;20042;-63
2023/05/01 08:02:29;;;;;;;9.60;6.80;;;;;;;14.20;94.69;101310.94;4978072;28;20562;-63
2023/05/01 08:04:54;;;;;;;8.02;6.38;;;;;;;14.40;97.67;101307.09;4979916;28;20061;-63
2023/05/01 08:07:20;;;;;;;9.48;7.00;;;;;;;14.57;97.30;101305.72;4973111;28;20493;-63
2023/05/01 08:09:45;;;;;;;8.35;6.45;;;;;;;14.75;96.63;101310.50;4982479;28;20069;-63
2023/05/01 08:12:10;;;;;;;9.18;7.03;;;;;;;15.05;95.56;101309.41;4967924;28;20034;-63
2023/05/01 08:14:36;;;;;;;8.20;7.03;;;;;;;15.48;94.05;101316.34;4955653;28;20372;-62
2023/05/01 08:17:01;;;;;;;8.43;6.43;;;;;;;15.91;91.39;101307.53;4980656;28;20435;-63
2023/05/01 08:19:27;;;;;;;13.07;6.78;;;;;;;16.30;88.68;101302.94;4979404;28;20027;-63
2023/05/01 08:21:52;;;;;;;6.88;6.15;;;;;;;16.66;83.14;101299.13;4978480;28;20054;-63
2023/05/01 08:24:18;;;;;;;10.15;6.30;;;;;;;16.96;84.13;101299.53;4979484;28;20026;-63
2023/05/01 08:26:43;;;;;;;8.23;5.97;;;;;;;17.26;80.42;101300.78;4985521;28;20069;-63
2023/05/01 08:29:09;;;;;;;6.63;5.72;;;;;;;17.47;78.67;101304.50;4979961;28;20434;-63
2023/05/01 08:31:36;;;;;;;8.35;6.25;;;;;;;17.51;76.29;101306.28;4981106;28;20029;-66
2023/05/01 08:34:02;;;;;;;7.78;6.55;;;;;;;17.61;76.10;101303.78;4975014;28;20031;-65
2023/05/01 08:36:27;;;;;;;9.00;6.22;;;;;;;17.81;76.75;101297.84;4982386;28;20038;-65
2023/05/01 08:38:52;;;;;;;6.40;5.80;;;;;;;18.08;75.31;101304.19;4984974;28;20030;-65
2023/05/01 08:41:20;;;;;;;7.78;6.80;;;;;;;18.24;75.18;101302.59;4983449;28;20419;-65
2023/05/01 08:43:47;;;;;;;8.38;6.05;;;;;;;18.46;74.13;101301.00;4978511;28;20158;-65
2023/05/01 08:46:20;;;;;;;6.50;5.70;;;;;;;18.67;68.79;101303.75;4982950;28;20041;-65
2023/05/01 08:48:47;;;;;;;10.48;6.88;;;;;;;18.83;70.93;101308.19;4980072;28;20045;-65
2023/05/01 08:51:16;;;;;;;7.45;5.63;;;;;;;18.95;70.59;101303.88;4980166;28;20085;-65
2023/05/01 08:53:43;;;;;;;6.82;6.05;;;;;;;18.94;66.67;101305.59;4986123;28;20026;-65
2023/05/01 08:56:10;;;;;;;7.60;6.60;;;;;;;18.82;69.00;101310.81;4969578;28;20030;-66
2023/05/01 08:58:35;;;;;;;8.32;6.68;;;;;;;18.75;67.87;101303.75;4964585;28;20027;-65
2023/05/01 09:01:01;;;;;;;8.23;6.90;;;;;;;18.67;65.99;101301.97;4988386;28;20497;-65
2023/05/01 09:03:30;;;;;;;7.30;6.60;;;;;;;18.63;68.96;101307.19;4989125;28;20764;-65
2023/05/01 09:05:56;;;;;;;7.60;6.20;;;;;;;18.76;71.66;101305.53;4976202;28;20057;-66
2023/05/01 09:08:22;;;;;;;7.78;6.80;;;;;;;18.80;67.24;101308.16;4978566;28;20096;-65
2023/05/01 09:10:48;;;;;;;6.55;5.88;;;;;;;18.78;66.91;101311.69;4977546;28;20057;-65
2023/05/01 09:13:14;;;;;;;9.27;6.60;;;;;;;18.71;67.28;101302.88;4990448;28;20041;-65
2023/05/01 09:15:39;;;;;;;7.40;6.00;;;;;;;18.71;69.04;101309.00;4988389;28;20042;-65
2023/05/01 09:18:07;;;;;;;6.15;5.55;;;;;;;18.70;67.47;101307.25;4978876;28;20035;-65
2023/05/01 09:20:36;;;;;;;9.30;6.20;;;;;;;18.86;68.93;101307.31;4975753;28;20528;-65
2023/05/01 09:23:01;;;;;;;7.47;5.95;;;;;;;18.96;67.67;101311.75;4979223;28;20128;-65
2023/05/01 09:25:27;;;;;;;6.93;5.20;;;;;;;19.08;67.05;101302.19;4990338;28;20027;-65
2023/05/01 09:27:52;;;;;;;9.82;5.85;;;;;;;19.13;65.86;101300.47;4990285;28;20010;-66
2023/05/01 09:30:34;;;;;;;7.38;5.60;;;;;;;19.17;67.39;101312.75;4989442;28;20045;-66
2023/05/01 09:33:10;;;;;;;7.05;6.35;;;;;;;19.19;66.71;101299.63;4989571;28;20093;-65
2023/05/01 09:35:56;;;;;;;8.77;5.80;;;;;;;19.17;64.36;101297.00;4989547;28;20028;-65
2023/05/01 09:38:26;;;;;;;6.95;6.25;;;;;;;19.11;66.75;101304.81;4989541;28;20030;-65
2023/05/01 09:40:55;;;;;;;7.63;5.82;;;;;;;19.06;68.21;101304.81;4989502;28;20081;-65
2023/05/01 09:43:25;;;;;;;8.63;6.47;;;;;;;18.94;66.92;101305.59;4989612;28;20026;-65
2023/05/01 09:46:10;;;;;;;5.70;5.20;;;;;;;18.86;66.50;101302.06;4988914;28;20510;-65
2023/05/01 09:48:36;;;;;;;11.38;6.60;;;;;;;18.90;67.28;101303.84;4989662;28;20064;-65
2023/05/01 09:51:26;;;;;;;9.68;6.07;;;;;;;18.99;68.60;101302.13;4989175;28;20547;-65
2023/05/01 09:53:53;;;;;;;6.90;5.45;;;;;;;19.10;66.09;101305.69;4975943;28;20015;-66
2023/05/01 09:56:20;;;;;;;6.50;5.90;;;;;;;19.24;65.31;101310.13;4977366;28;20027;-66
2023/05/01 09:58:48;;;;;;;7.50;5.93;;;;;;;19.44;66.02;101316.34;4989402;28;20030;-65
2023/05/01 10:01:14;;;;;;;6.32;5.68;;;;;;;19.67;66.43;101306.72;4989317;28;20089;-66
2023/05/01 10:03:39;;;;;;;9.20;6.85;;;;;;;19.88;63.54;101321.66;4989350;28;20023;-65
2023/05/01 10:06:05;;;;;;;8.07;6.15;;;;;;;20.03;66.11;101309.38;4986867;28;20355;-66
2023/05/01 10:08:47;;;;;;;7.25;6.47;;;;;;;20.05;65.43;101312.94;4978646;28;20029;-66
2023/05/01 10:11:13;;;;;;;7.78;6.95;;;;;;;19.81;61.96;101309.38;4988717;28;20018;-66
2023/05/01 10:13:38;;;;;;;7.45;6.70;;;;;;;19.74;65.14;101307.59;4989115;28;20390;-65
2023/05/01 10:16:06;;;;;;;9.55;6.30;;;;;;;19.73;64.66;101316.38;4988603;28;20058;-66
2023/05/01 10:18:36;;;;;;;7.72;6.47;;;;;;;19.73;65.77;101316.38;4989195;28;20138;-65
2023/05/01 10:21:03;;;;;;;7.00;6.05;;;;;;;19.62;64.48;101319.88;4982738;28;20023;-65
2023/05/01 10:23:29;;;;;;;7.35;6.65;;;;;;;19.54;62.61;101327.72;4969550;28;20118;-65
2023/05/01 10:25:55;;;;;;;8.07;6.32;;;;;;;19.48;65.60;101316.34;4969707;28;20141;-65
2023/05/01 10:28:23;;;;;;;8.88;6.30;;;;;;;19.36;62.52;101325.94;4969424;28;20037;-65
2023/05/01 10:30:49;;;;;;;7.68;6.85;;;;;;;19.24;62.51;101316.28;4969642;28;20077;-65
2023/05/01 10:33:15;;;;;;;7.47;6.70;;;;;;;19.15;64.84;101322.38;4982414;28;20038;-65
2023/05/01 10:35:47;;;;;;;7.95;6.63;;;;;;;19.16;65.77;101321.50;4969133;28;20019;-65
2023/05/01 10:38:20;;;;;;;6.82;6.03;;;;;;;19.28;66.89;101319.78;4971479;28;20057;-66
2023/05/01 10:40:47;;;;;;;6.95;6.25;;;;;;;19.35;65.09;101318.03;4970717;28;20054;-65
2023/05/01 10:43:27;;;;;;;7.03;6.35;;;;;;;19.41;65.33;101316.31;4971516;28;20030;-66
2023/05/01 10:46:17;;;;;;;7.38;6.55;;;;;;;19.41;66.15;101313.69;4969969;28;20019;-66
2023/05/01 10:48:43;;;;;;;8.05;6.72;;;;;;;19.47;65.00;101319.81;4959806;28;20026;-65
2023/05/01 10:51:21;;;;;;;6.65;5.93;;;;;;;19.56;64.91;101312.84;4986835;28;20076;-66
2023/05/01 10:53:48;;;;;;;7.22;6.53;;;;;;;19.53;62.99;101314.59;4982031;28;20023;-66
2023/05/01 10:56:20;;;;;;;10.32;7.75;;;;;;;19.62;68.13;101306.72;4968883;28;20035;-65
2023/05/01 10:58:50;;;;;;;8.98;6.22;;;;;;;19.67;69.30;101317.25;4968796;28;20034;-65
2023/05/01 11:01:35;;;;;;;8.35;6.18;;;;;;;19.70;67.90;101316.38;4969260;28;20038;-65
2023/05/01 11:04:09;;;;;;;8.23;6.82;;;;;;;19.70;67.75;101322.50;4969331;28;20061;-66
2023/05/01 11:06:36;;;;;;;7.65;6.88;;;;;;;19.65;68.05;101319.00;4969100;28;20019;-66
2023/05/01 11:09:34;;;;;;;8.20;6.20;;;;;;;19.61;66.80;101318.09;4982156;28;20379;-66
2023/05/01 11:12:00;;;;;;;7.53;6.25;;;;;;;19.60;67.38;101324.25;4987964;28;20586;-66
2023/05/01 11:14:26;;;;;;;8.93;7.10;;;;;;;19.60;67.01;101326.00;4988175;28;20137;-66
2023/05/01 11:16:51;;;;;;;7.35;6.65;;;;;;;19.71;68.14;101315.50;4987815;28;20022;-65
2023/05/01 11:19:17;;;;;;;9.38;6.88;;;;;;;19.78;66.51;101315.50;4983368;28;20448;-65
2023/05/01 11:21:43;;;;;;;7.40;6.32;;;;;;;19.87;66.41;101317.28;4969209;28;20118;-66
2023/05/01 11:24:08;;;;;;;8.52;5.80;;;;;;;19.96;66.23;101318.13;4969426;28;20041;-66